Aviation Digital Data Service (ADDS)

Output produced by METARs form (1803 UTC 25 March 2019)
found at http://www.aviationweather.gov/metar/data/
 
Forecast for: UNNT (TOLMACHEVO , RU)
Text: TAF UNNT 251700Z 2518/2618 04003MPS 0800 FZFG BKN005
Forecast period: 1800 UTC 25 March 2019 to 0500 UTC 26 March 2019
Forecast type: FROM: standard forecast or significant change
Winds: from the NE (40 degrees) at 7 MPH (6 knots; 3.1 m/s)
Visibility: 0.50 miles (0.80 km)
Ceiling: 500 feet AGL
Clouds: broken clouds at 500 feet AGL
Weather: FZFG  (freezing fog)
Text: TEMPO 2518/2605 0150 FZFG BKN001
Forecast period: 1800 UTC 25 March 2019 to 0500 UTC 26 March 2019
Forecast type: TEMPORARY: The following changes expected for less than half the time period
Visibility: 0.09 miles (0.14 km)
Ceiling: 100 feet AGL
Clouds: broken clouds at 100 feet AGL
Weather: FZFG  (freezing fog)
Text: FM260500 13005G12MPS 9999 SCT040
Forecast period: 0500 to 1800 UTC 26 March 2019
Forecast type: FROM: standard forecast or significant change
Winds: from the SE (130 degrees) at 12 MPH (10 knots; 5.1 m/s)
gusting to 26 MPH (23 knots; 11.8 m/s)
Visibility: 6 or more miles 10+ km)
Ceiling: at least 12,000 feet AGL
Clouds: scattered clouds at 4000 feet AGL
Weather: no significant weather forecast for this period